Time;durP1;ratioP1;P1;durP2;ratioP2;P2;SDS_P1;SDS_P2;PMS_P1;PMS_P2;Temp;Humidity;BMP_temperature;BMP_pressure;BME280_temperature;BME280_humidity;BME280_pressure;Samples;Min_cycle;Max_cycle;Signal;HPM_P1;HPM_P2
2022/09/09 00:02:19;;;;;;;2.03;0.68;;;23.00;56.50;;;;;;5052931;28;20175;-64
2022/09/09 00:04:54;;;;;;;1.42;0.70;;;23.00;56.50;;;;;;5051988;28;20172;-64
2022/09/09 00:07:41;;;;;;;1.05;0.70;;;23.00;56.50;;;;;;5052803;28;20742;-64
2022/09/09 00:10:39;;;;;;;1.83;0.60;;;23.00;56.50;;;;;;5052676;28;20170;-63
2022/09/09 00:13:20;;;;;;;1.58;0.70;;;23.00;56.50;;;;;;5034563;28;20175;-64
2022/09/09 00:15:54;;;;;;;0.95;0.73;;;23.00;56.50;;;;;;5034683;28;20607;-64
2022/09/09 00:18:41;;;;;;;1.45;0.80;;;23.00;56.60;;;;;;5052791;28;20190;-64
2022/09/09 00:21:12;;;;;;;0.77;0.60;;;23.00;56.50;;;;;;5052329;28;20638;-64
2022/09/09 00:23:39;;;;;;;1.67;0.85;;;23.00;56.50;;;;;;5035582;28;20312;-64
2022/09/09 00:26:19;;;;;;;2.75;0.93;;;23.00;56.60;;;;;;5051754;28;20223;-63
2022/09/09 00:29:09;;;;;;;1.58;0.77;;;23.00;56.60;;;;;;5052294;28;20214;-64
2022/09/09 00:31:37;;;;;;;1.77;0.65;;;23.00;56.60;;;;;;5032755;28;20194;-63
2022/09/09 00:34:11;;;;;;;1.45;0.70;;;22.90;56.60;;;;;;5051483;28;20660;-63
2022/09/09 00:36:36;;;;;;;0.93;0.70;;;23.00;56.70;;;;;;5052612;28;20171;-63
2022/09/09 00:39:02;;;;;;;2.95;1.20;;;23.00;56.70;;;;;;5034782;28;20182;-64
2022/09/09 00:41:38;;;;;;;1.13;0.80;;;22.90;56.70;;;;;;5051740;28;20179;-64
2022/09/09 00:44:23;;;;;;;2.30;1.10;;;22.90;56.60;;;;;;5052256;28;20197;-65
2022/09/09 00:47:36;;;;;;;1.48;1.02;;;22.90;56.80;;;;;;5033944;28;20187;-64
2022/09/09 00:50:06;;;;;;;1.10;1.00;;;22.90;56.80;;;;;;5038711;28;20186;-64
2022/09/09 00:52:44;;;;;;;1.10;0.93;;;22.90;56.70;;;;;;5034862;28;20187;-64
2022/09/09 00:55:33;;;;;;;2.17;1.20;;;22.90;56.80;;;;;;5033904;28;20540;-64
2022/09/09 00:57:59;;;;;;;1.38;1.00;;;22.90;56.80;;;;;;5034391;28;20630;-64
2022/09/09 01:00:29;;;;;;;2.85;0.95;;;22.90;56.80;;;;;;5052168;28;20224;-64
2022/09/09 01:03:14;;;;;;;1.77;0.95;;;22.90;56.80;;;;;;5034520;28;20171;-64
2022/09/09 01:05:43;;;;;;;1.60;1.05;;;22.90;56.80;;;;;;5036877;28;20182;-64
2022/09/09 01:08:52;;;;;;;1.23;0.88;;;22.90;56.90;;;;;;5055481;28;20215;-64
2022/09/09 01:11:37;;;;;;;1.02;0.85;;;22.90;56.80;;;;;;5002044;28;20225;-63
2022/09/09 01:14:11;;;;;;;2.53;1.10;;;22.90;56.80;;;;;;5055723;28;20707;-64
2022/09/09 01:16:37;;;;;;;1.80;1.20;;;22.90;56.90;;;;;;5038690;28;20178;-64
2022/09/09 01:19:02;;;;;;;1.63;1.00;;;22.80;56.90;;;;;;5037984;28;20228;-64
2022/09/09 01:21:50;;;;;;;1.80;1.00;;;22.80;56.90;;;;;;5055788;28;20178;-64
2022/09/09 01:24:26;;;;;;;2.00;1.00;;;22.80;56.90;;;;;;5038247;28;20193;-64
2022/09/09 01:26:54;;;;;;;1.33;1.02;;;22.80;56.80;;;;;;5038861;28;20223;-64
2022/09/09 01:29:21;;;;;;;2.55;1.20;;;22.80;56.80;;;;;;5037188;28;20186;-63
2022/09/09 01:32:00;;;;;;;1.58;1.25;;;22.80;57.40;;;;;;5055511;28;20262;-63
2022/09/09 01:34:31;;;;;;;1.38;0.80;;;22.80;56.80;;;;;;5055746;28;20190;-63
2022/09/09 01:37:07;;;;;;;2.45;1.10;;;22.80;56.80;;;;;;5037702;28;20189;-64
2022/09/09 01:39:34;;;;;;;1.70;1.10;;;22.80;56.80;;;;;;5037658;28;20179;-64
2022/09/09 01:41:59;;;;;;;1.20;0.93;;;22.80;56.80;;;;;;5055359;28;20566;-64
2022/09/09 01:44:25;;;;;;;2.83;0.98;;;22.80;56.80;;;;;;5036808;28;20646;-64
2022/09/09 01:46:50;;;;;;;1.98;0.90;;;22.70;56.70;;;;;;5055280;28;20210;-64
2022/09/09 01:49:16;;;;;;;1.58;1.20;;;22.80;56.80;;;;;;5055518;28;20179;-64
2022/09/09 01:51:42;;;;;;;1.48;0.90;;;22.70;56.70;;;;;;5054435;28;20567;-64
2022/09/09 01:54:07;;;;;;;1.65;0.70;;;22.70;56.60;;;;;;5055228;28;20216;-63
2022/09/09 01:56:54;;;;;;;1.40;0.73;;;22.80;56.70;;;;;;5037394;28;20634;-64
2022/09/09 01:59:32;;;;;;;0.70;0.70;;;22.70;56.60;;;;;;5039983;28;20221;-64
2022/09/09 02:02:03;;;;;;;0.85;0.60;;;22.70;56.60;;;;;;5055135;28;20285;-64
2022/09/09 02:04:52;;;;;;;1.00;0.80;;;22.70;56.50;;;;;;5054422;28;20179;-64
2022/09/09 02:07:40;;;;;;;1.67;1.10;;;22.70;56.50;;;;;;5031832;28;20245;-64
2022/09/09 02:10:16;;;;;;;1.73;0.80;;;22.70;56.50;;;;;;5054709;28;20186;-63
2022/09/09 02:12:44;;;;;;;1.75;1.10;;;22.70;56.50;;;;;;5054235;28;20529;-64
2022/09/09 02:15:16;;;;;;;0.68;0.60;;;22.70;56.50;;;;;;5037090;28;20179;-64
2022/09/09 02:17:42;;;;;;;0.88;0.75;;;22.70;56.50;;;;;;5036138;28;20672;-64
2022/09/09 02:20:10;;;;;;;1.00;0.65;;;22.70;56.50;;;;;;5054151;28;20202;-64
2022/09/09 02:22:36;;;;;;;1.35;0.85;;;22.60;56.40;;;;;;5036788;28;20233;-64
2022/09/09 02:25:01;;;;;;;3.92;0.80;;;22.70;56.40;;;;;;5036635;28;20642;-64
2022/09/09 02:27:27;;;;;;;0.80;0.80;;;22.60;56.40;;;;;;5036279;28;20215;-63
2022/09/09 02:29:52;;;;;;;1.10;0.95;;;22.60;56.40;;;;;;5036659;28;20246;-63
2022/09/09 02:32:20;;;;;;;2.03;0.90;;;22.60;56.40;;;;;;5036056;28;20657;-63
2022/09/09 02:34:48;;;;;;;2.03;0.70;;;22.60;56.40;;;;;;5036513;28;20545;-63
2022/09/09 02:37:16;;;;;;;0.77;0.77;;;22.60;56.40;;;;;;5036666;28;20642;-63
2022/09/09 02:39:42;;;;;;;3.03;1.00;;;22.60;56.40;;;;;;5053634;28;20557;-63
2022/09/09 02:42:08;;;;;;;0.80;0.80;;;22.60;56.40;;;;;;5054267;28;20179;-64
2022/09/09 02:44:33;;;;;;;3.75;1.00;;;22.60;56.30;;;;;;5054126;28;20187;-64
2022/09/09 02:47:08;;;;;;;1.00;0.85;;;22.60;56.40;;;;;;5053555;28;20219;-63
2022/09/09 02:49:41;;;;;;;2.35;0.90;;;22.60;56.40;;;;;;5054389;28;20174;-64
2022/09/09 02:52:07;;;;;;;2.78;0.82;;;22.60;56.30;;;;;;5036895;28;20167;-64
2022/09/09 02:54:39;;;;;;;1.13;0.90;;;22.60;56.40;;;;;;5035741;28;20211;-64
2022/09/09 02:57:12;;;;;;;1.25;0.88;;;22.50;56.30;;;;;;5053895;28;20182;-64
2022/09/09 02:59:38;;;;;;;1.25;0.93;;;22.50;56.30;;;;;;5054036;28;20179;-64
2022/09/09 03:02:03;;;;;;;1.35;0.82;;;22.60;56.30;;;;;;5053224;28;20183;-64
2022/09/09 03:04:30;;;;;;;1.10;1.00;;;22.50;56.30;;;;;;5054018;28;20198;-64
2022/09/09 03:06:56;;;;;;;2.35;1.25;;;22.50;56.20;;;;;;5053698;28;20288;-64
2022/09/09 03:09:22;;;;;;;2.20;1.00;;;22.50;56.30;;;;;;5053247;28;20218;-63
2022/09/09 03:11:49;;;;;;;1.10;1.00;;;22.50;56.20;;;;;;5053548;28;20575;-63
2022/09/09 03:14:15;;;;;;;1.30;0.88;;;22.50;56.20;;;;;;5054062;28;20182;-63
2022/09/09 03:16:42;;;;;;;1.42;1.13;;;22.50;56.20;;;;;;5053079;28;20281;-64
2022/09/09 03:19:07;;;;;;;0.98;0.63;;;22.50;56.20;;;;;;5053507;28;20183;-64
2022/09/09 03:21:33;;;;;;;1.63;0.60;;;22.50;56.20;;;;;;5052778;28;20267;-64
2022/09/09 03:23:58;;;;;;;1.58;0.77;;;22.40;56.10;;;;;;5053388;28;20175;-64
2022/09/09 03:26:24;;;;;;;1.40;0.80;;;22.50;56.10;;;;;;5053108;28;20285;-64
2022/09/09 03:28:52;;;;;;;1.70;0.70;;;22.50;56.20;;;;;;5052685;28;20214;-63
2022/09/09 03:31:19;;;;;;;1.15;0.85;;;22.50;56.20;;;;;;5053606;28;20259;-63
2022/09/09 03:33:44;;;;;;;1.50;0.80;;;22.40;56.20;;;;;;5053221;28;20281;-63
2022/09/09 03:36:10;;;;;;;0.88;0.70;;;22.40;56.20;;;;;;5052553;28;20560;-63
2022/09/09 03:38:35;;;;;;;1.48;1.00;;;22.40;56.20;;;;;;5053222;28;20544;-64
2022/09/09 03:41:01;;;;;;;1.38;0.70;;;22.40;56.20;;;;;;5053056;28;20646;-64
2022/09/09 03:43:27;;;;;;;1.42;0.70;;;22.40;56.20;;;;;;5052703;28;20175;-64
2022/09/09 03:45:53;;;;;;;1.10;0.70;;;22.40;56.10;;;;;;5053269;28;20175;-64
2022/09/09 03:48:18;;;;;;;1.35;0.90;;;22.40;56.10;;;;;;5053149;28;20217;-64
2022/09/09 03:50:46;;;;;;;1.50;0.80;;;22.40;56.20;;;;;;5052147;28;20175;-64
2022/09/09 03:53:11;;;;;;;2.05;1.10;;;22.40;56.20;;;;;;5053101;28;20653;-64
2022/09/09 03:55:37;;;;;;;1.75;0.85;;;22.40;56.20;;;;;;5052869;28;20175;-64
2022/09/09 03:58:02;;;;;;;1.88;1.00;;;22.40;56.10;;;;;;5051899;28;20626;-64
2022/09/09 04:00:28;;;;;;;1.48;0.60;;;22.40;56.10;;;;;;5052991;28;20178;-64
2022/09/09 04:02:57;;;;;;;1.60;0.90;;;22.40;56.20;;;;;;5052882;28;20183;-64
2022/09/09 04:05:23;;;;;;;4.18;1.20;;;22.40;56.10;;;;;;5052243;28;20171;-64
2022/09/09 04:07:48;;;;;;;1.58;0.80;;;22.30;56.10;;;;;;5052528;28;20214;-64
2022/09/09 04:10:15;;;;;;;1.52;0.80;;;22.30;56.10;;;;;;5053092;28;20175;-64
2022/09/09 04:12:41;;;;;;;1.98;0.90;;;22.30;56.10;;;;;;5052199;28;20171;-64
2022/09/09 04:15:07;;;;;;;1.80;0.70;;;22.30;56.10;;;;;;5052760;28;20246;-64
2022/09/09 04:17:33;;;;;;;3.28;0.95;;;22.30;56.10;;;;;;5052652;28;20175;-64
2022/09/09 04:19:58;;;;;;;2.05;0.90;;;22.30;56.10;;;;;;5051730;28;20244;-63
2022/09/09 04:22:24;;;;;;;1.45;0.90;;;22.30;56.20;;;;;;5052501;28;20562;-64
2022/09/09 04:24:49;;;;;;;2.25;1.08;;;22.30;56.20;;;;;;5051570;28;20200;-64
2022/09/09 04:27:15;;;;;;;1.05;0.85;;;22.30;56.20;;;;;;5052377;28;20233;-63
2022/09/09 04:29:40;;;;;;;1.35;1.00;;;22.30;56.20;;;;;;5052830;28;20213;-64
2022/09/09 04:32:05;;;;;;;1.40;1.20;;;22.30;56.20;;;;;;5051836;28;20262;-64
2022/09/09 04:34:32;;;;;;;1.67;1.10;;;22.30;56.20;;;;;;5052456;28;20183;-64
2022/09/09 04:36:58;;;;;;;1.85;1.13;;;22.30;56.30;;;;;;5052529;28;20179;-64
2022/09/09 04:39:24;;;;;;;1.60;1.00;;;22.30;56.40;;;;;;5051976;28;20516;-64
2022/09/09 04:41:49;;;;;;;2.97;1.25;;;22.30;56.40;;;;;;5056688;28;20221;-64
2022/09/09 04:44:15;;;;;;;3.10;1.10;;;22.30;56.40;;;;;;5056487;28;20552;-64
2022/09/09 04:46:41;;;;;;;2.60;0.98;;;22.30;56.40;;;;;;5055940;28;20340;-64
2022/09/09 04:49:06;;;;;;;2.22;1.02;;;22.30;56.40;;;;;;5056426;28;20175;-64
2022/09/09 04:51:32;;;;;;;2.33;0.95;;;22.30;56.50;;;;;;5056405;28;20645;-64
2022/09/09 04:53:58;;;;;;;2.42;1.10;;;22.30;56.50;;;;;;5055538;28;20583;-64
2022/09/09 04:56:23;;;;;;;2.58;1.10;;;22.20;56.50;;;;;;5056523;28;20172;-63
2022/09/09 04:58:49;;;;;;;1.50;1.00;;;22.20;56.50;;;;;;5056060;28;20203;-63
2022/09/09 05:01:19;;;;;;;1.50;1.38;;;22.20;56.50;;;;;;5055605;28;20656;-64
2022/09/09 05:03:45;;;;;;;2.72;1.27;;;22.20;56.50;;;;;;5056082;28;20191;-63
2022/09/09 05:06:12;;;;;;;2.22;1.17;;;22.20;56.50;;;;;;5056169;28;20182;-64
2022/09/09 05:08:38;;;;;;;1.40;1.10;;;22.20;56.60;;;;;;5055253;28;20207;-64
2022/09/09 05:11:16;;;;;;;2.08;1.10;;;22.20;56.70;;;;;;5055767;28;20709;-63
2022/09/09 05:13:41;;;;;;;1.98;0.93;;;22.20;56.70;;;;;;5056281;28;20203;-63
2022/09/09 05:16:07;;;;;;;1.42;0.88;;;22.20;56.70;;;;;;5055044;28;20590;-64
2022/09/09 05:18:32;;;;;;;1.30;0.93;;;22.20;56.70;;;;;;5056132;28;20274;-64
2022/09/09 05:21:01;;;;;;;2.85;1.27;;;22.20;56.80;;;;;;5054891;28;20224;-64
2022/09/09 05:23:27;;;;;;;2.47;1.15;;;22.20;56.80;;;;;;5056027;28;20232;-64
2022/09/09 05:25:56;;;;;;;2.95;1.35;;;22.20;56.90;;;;;;5055590;28;20231;-63
2022/09/09 05:28:24;;;;;;;2.08;1.05;;;22.20;56.90;;;;;;5055138;28;20219;-63
2022/09/09 05:31:00;;;;;;;3.67;0.93;;;22.20;56.90;;;;;;5055599;28;20167;-63
2022/09/09 05:33:26;;;;;;;2.67;1.15;;;22.20;56.90;;;;;;5055640;28;20254;-63
2022/09/09 05:35:58;;;;;;;3.55;1.40;;;22.20;56.90;;;;;;5055026;28;20313;-63
2022/09/09 05:38:25;;;;;;;2.08;1.23;;;22.20;57.00;;;;;;5055466;28;20626;-64
2022/09/09 05:40:52;;;;;;;2.42;1.10;;;22.20;57.00;;;;;;5055352;28;20181;-64
2022/09/09 05:43:19;;;;;;;6.47;1.35;;;22.20;57.00;;;;;;5054717;28;20707;-64
2022/09/09 05:45:47;;;;;;;1.50;1.20;;;22.20;57.10;;;;;;5055111;28;20186;-64
2022/09/09 05:48:14;;;;;;;2.10;1.15;;;22.20;57.10;;;;;;5055307;28;20565;-64
2022/09/09 05:50:40;;;;;;;3.67;1.30;;;22.20;57.10;;;;;;5054182;28;20177;-63
2022/09/09 05:53:06;;;;;;;2.83;0.73;;;22.20;57.10;;;;;;5054449;28;20175;-63
2022/09/09 05:55:31;;;;;;;1.67;1.10;;;22.20;57.20;;;;;;5055368;28;20182;-63
2022/09/09 05:57:57;;;;;;;1.35;1.08;;;22.20;57.20;;;;;;5054375;28;20178;-64
2022/09/09 06:00:22;;;;;;;3.13;1.30;;;22.20;57.20;;;;;;5055139;28;20195;-64
2022/09/09 06:02:52;;;;;;;2.05;1.00;;;22.20;57.20;;;;;;5054884;28;20281;-64
2022/09/09 06:05:18;;;;;;;3.03;1.20;;;22.20;57.30;;;;;;5054659;28;20179;-64
2022/09/09 06:07:44;;;;;;;2.13;0.90;;;22.20;57.20;;;;;;5054620;28;20744;-63
2022/09/09 06:10:10;;;;;;;3.05;1.27;;;22.20;57.20;;;;;;5054388;28;20548;-63
2022/09/09 06:12:36;;;;;;;2.13;1.13;;;22.20;57.20;;;;;;5054902;28;20657;-64
2022/09/09 06:15:01;;;;;;;3.53;1.45;;;22.20;57.20;;;;;;5054671;28;20201;-64
2022/09/09 06:17:27;;;;;;;3.05;1.23;;;22.20;57.20;;;;;;5053951;28;20237;-64
2022/09/09 06:19:53;;;;;;;4.22;1.33;;;22.20;57.30;;;;;;5054795;28;20171;-63
2022/09/09 06:22:19;;;;;;;2.78;0.98;;;22.30;57.30;;;;;;5054776;28;20186;-64
2022/09/09 06:24:44;;;;;;;4.68;1.38;;;22.20;57.20;;;;;;5053797;28;20642;-63
2022/09/09 06:27:10;;;;;;;4.80;1.42;;;22.30;57.30;;;;;;5054517;28;20254;-63
2022/09/09 06:29:36;;;;;;;5.45;1.65;;;22.20;57.40;;;;;;5054528;28;20174;-63
2022/09/09 06:32:02;;;;;;;3.70;1.17;;;22.20;57.50;;;;;;5053937;28;20690;-63
2022/09/09 06:34:28;;;;;;;2.72;1.00;;;22.20;57.50;;;;;;5056018;28;20182;-62
2022/09/09 06:36:53;;;;;;;2.85;1.35;;;22.20;57.60;;;;;;5054268;28;20523;-62
2022/09/09 06:39:19;;;;;;;4.15;1.48;;;22.20;57.60;;;;;;5053871;28;20186;-63
2022/09/09 06:41:44;;;;;;;3.05;1.00;;;22.20;57.60;;;;;;5054163;28;20171;-63
2022/09/09 06:44:13;;;;;;;4.22;1.20;;;22.20;57.60;;;;;;5054367;28;20203;-63
2022/09/09 06:46:39;;;;;;;4.13;1.45;;;22.20;57.60;;;;;;5053496;28;20523;-63
2022/09/09 06:49:04;;;;;;;4.35;1.45;;;22.30;57.80;;;;;;5054057;28;20264;-63
2022/09/09 06:51:31;;;;;;;4.72;1.38;;;22.30;57.80;;;;;;5054122;28;20601;-64
2022/09/09 06:53:58;;;;;;;4.57;1.20;;;22.30;57.80;;;;;;5053045;28;20581;-64
2022/09/09 06:56:27;;;;;;;3.88;1.17;;;22.30;57.90;;;;;;5053932;28;20179;-64
2022/09/09 06:58:54;;;;;;;3.53;1.20;;;22.30;58.00;;;;;;5053853;28;20183;-63
2022/09/09 07:01:21;;;;;;;5.82;2.17;;;22.30;57.80;;;;;;5053597;28;20175;-63
2022/09/09 07:03:48;;;;;;;3.00;1.50;;;22.40;57.90;;;;;;5053592;28;20179;-63
2022/09/09 07:06:16;;;;;;;4.13;1.40;;;22.30;57.90;;;;;;5054054;28;20179;-64
2022/09/09 07:08:42;;;;;;;2.83;1.45;;;22.40;57.90;;;;;;5053071;28;20215;-63
2022/09/09 07:11:08;;;;;;;3.13;1.35;;;22.40;57.80;;;;;;5053658;28;20202;-63
2022/09/09 07:13:34;;;;;;;3.50;1.30;;;22.40;57.80;;;;;;5052942;28;20642;-63
2022/09/09 07:16:07;;;;;;;3.08;0.95;;;22.40;57.80;;;;;;5053764;28;20210;-63
2022/09/09 07:18:34;;;;;;;4.60;1.23;;;22.40;57.90;;;;;;5053814;28;20187;-64
2022/09/09 07:21:00;;;;;;;4.28;1.77;;;22.30;57.90;;;;;;5052911;28;20186;-64
2022/09/09 07:23:25;;;;;;;1.67;1.02;;;22.30;57.80;;;;;;5053503;28;20171;-63
2022/09/09 07:25:52;;;;;;;4.47;1.20;;;22.30;57.90;;;;;;5053134;28;20263;-63
2022/09/09 07:28:18;;;;;;;4.05;1.33;;;22.40;57.90;;;;;;5052731;28;20226;-63
2022/09/09 07:30:55;;;;;;;4.85;1.48;;;22.40;57.80;;;;;;5053304;28;20180;-63
2022/09/09 07:33:20;;;;;;;2.55;1.20;;;22.40;57.70;;;;;;5037229;28;20183;-63
2022/09/09 07:35:46;;;;;;;5.40;1.60;;;22.40;57.70;;;;;;5052496;28;20186;-63
2022/09/09 07:38:11;;;;;;;2.03;0.98;;;22.50;57.70;;;;;;5053221;28;20179;-65
2022/09/09 07:40:37;;;;;;;3.60;0.95;;;22.50;57.70;;;;;;5053252;28;20176;-66
2022/09/09 07:43:03;;;;;;;4.55;1.80;;;22.40;57.80;;;;;;5052279;28;20178;-66
2022/09/09 07:45:28;;;;;;;5.00;1.48;;;22.40;57.80;;;;;;5053162;28;20171;-66
2022/09/09 07:47:56;;;;;;;7.10;1.80;;;22.40;57.80;;;;;;5053029;28;20203;-65
2022/09/09 07:50:23;;;;;;;3.22;1.45;;;22.50;57.80;;;;;;5052335;28;20179;-62
2022/09/09 07:52:49;;;;;;;3.72;1.50;;;22.40;57.70;;;;;;5052924;28;20219;-62
2022/09/09 07:55:14;;;;;;;4.20;1.63;;;22.50;57.70;;;;;;5053014;28;20199;-62
2022/09/09 07:57:40;;;;;;;2.83;1.30;;;22.50;57.80;;;;;;5052167;28;20183;-62
2022/09/09 08:00:06;;;;;;;3.47;1.42;;;22.50;57.80;;;;;;5052762;28;20178;-63
2022/09/09 08:02:31;;;;;;;2.08;1.10;;;22.50;57.70;;;;;;5052700;28;20646;-62
2022/09/09 08:04:57;;;;;;;2.58;1.40;;;22.50;57.80;;;;;;5052024;28;20245;-63
2022/09/09 08:07:23;;;;;;;3.53;1.33;;;22.50;57.70;;;;;;5052886;28;20282;-60
2022/09/09 08:09:49;;;;;;;5.53;1.52;;;22.50;57.70;;;;;;5051842;28;20544;-61
2022/09/09 08:12:14;;;;;;;3.33;1.10;;;22.60;57.80;;;;;;5052915;28;20175;-61
2022/09/09 08:14:40;;;;;;;5.22;1.10;;;22.60;57.70;;;;;;5052144;28;20215;-60
2022/09/09 08:17:05;;;;;;;3.40;1.25;;;22.60;57.80;;;;;;5052102;28;20254;-63
2022/09/09 08:19:33;;;;;;;3.13;1.45;;;22.60;57.60;;;;;;5052654;28;20526;-63
2022/09/09 08:22:01;;;;;;;4.00;1.35;;;22.70;58.40;;;;;;5052438;28;20197;-63
2022/09/09 08:24:27;;;;;;;4.65;1.35;;;22.60;57.80;;;;;;5051767;28;20203;-63
2022/09/09 08:26:53;;;;;;;2.45;0.98;;;22.70;57.90;;;;;;5052202;28;20289;-62
2022/09/09 08:29:19;;;;;;;2.70;1.15;;;22.60;58.00;;;;;;5052678;28;20209;-62
2022/09/09 08:31:54;;;;;;;5.85;1.58;;;22.60;58.00;;;;;;5051602;28;20629;-61
2022/09/09 08:34:20;;;;;;;5.05;1.80;;;22.60;57.80;;;;;;5052674;28;20261;-62
2022/09/09 08:36:46;;;;;;;3.28;1.50;;;22.60;57.80;;;;;;5052203;28;20177;-62
2022/09/09 08:39:13;;;;;;;3.55;1.48;;;22.50;57.60;;;;;;5051720;28;20262;-62
2022/09/09 08:42:11;;;;;;;3.10;1.20;;;22.60;57.60;;;;;;5052644;28;20233;-61
2022/09/09 08:45:09;;;;;;;3.70;1.48;;;22.60;57.50;;;;;;5034937;28;20262;-62
2022/09/09 08:48:02;;;;;;;2.90;1.15;;;22.60;57.50;;;;;;5038870;28;20249;-62
2022/09/09 08:50:38;;;;;;;3.88;1.52;;;22.60;57.60;;;;;;5052243;28;20622;-62
2022/09/09 08:53:26;;;;;;;3.67;1.20;;;22.50;57.60;;;;;;5033915;28;20190;-61
2022/09/09 08:55:54;;;;;;;5.00;1.27;;;22.60;57.70;;;;;;5035959;28;20593;-62
2022/09/09 08:58:21;;;;;;;6.82;1.63;;;22.60;57.80;;;;;;5035073;28;20325;-63
2022/09/09 09:00:52;;;;;;;4.35;1.55;;;22.60;57.80;;;;;;5033549;28;20171;-63
2022/09/09 09:03:34;;;;;;;5.70;1.58;;;22.60;57.60;;;;;;5034742;28;20578;-63
2022/09/09 09:06:02;;;;;;;3.88;1.40;;;22.60;57.80;;;;;;5033447;28;20177;-62
2022/09/09 09:08:28;;;;;;;5.13;1.25;;;22.60;57.80;;;;;;5034447;28;20259;-62
2022/09/09 09:10:56;;;;;;;5.82;1.50;;;22.60;57.80;;;;;;5054548;28;20202;-61
2022/09/09 09:13:25;;;;;;;3.50;1.33;;;22.60;57.80;;;;;;5035203;28;20191;-63
2022/09/09 09:15:54;;;;;;;3.53;1.80;;;22.60;57.60;;;;;;5051980;28;20194;-62
2022/09/09 09:18:19;;;;;;;5.05;1.35;;;22.60;57.50;;;;;;5034435;28;20183;-63
2022/09/09 09:21:08;;;;;;;4.18;1.40;;;22.60;57.50;;;;;;5051019;28;20194;-63
2022/09/09 09:23:44;;;;;;;6.30;1.30;;;22.60;57.60;;;;;;5036063;28;20653;-63
2022/09/09 09:26:10;;;;;;;3.08;1.30;;;22.60;57.60;;;;;;5035635;28;20272;-62
2022/09/09 09:28:36;;;;;;;3.63;1.20;;;22.60;57.60;;;;;;5054915;28;20219;-63
2022/09/09 09:31:06;;;;;;;5.18;1.50;;;22.60;57.50;;;;;;5055437;28;20603;-61
2022/09/09 09:33:41;;;;;;;4.57;1.65;;;22.60;57.50;;;;;;5055782;28;20195;-61
2022/09/09 09:36:08;;;;;;;3.60;1.20;;;22.70;57.60;;;;;;5054852;28;20167;-63
2022/09/09 09:38:34;;;;;;;4.93;1.45;;;22.70;57.60;;;;;;5055430;28;20657;-63
2022/09/09 09:41:00;;;;;;;4.40;1.30;;;22.70;57.60;;;;;;5055355;28;20180;-63
2022/09/09 09:43:31;;;;;;;6.20;1.38;;;22.70;57.60;;;;;;5054561;28;20699;-62
2022/09/09 09:45:59;;;;;;;5.93;1.40;;;22.70;57.60;;;;;;5055117;28;20634;-63
2022/09/09 09:48:25;;;;;;;3.83;1.45;;;22.70;57.60;;;;;;5054582;28;20237;-62
2022/09/09 09:51:00;;;;;;;3.28;1.30;;;22.70;58.30;;;;;;5054972;28;20543;-62
2022/09/09 09:53:27;;;;;;;5.82;1.17;;;22.70;57.60;;;;;;5037694;28;20713;-62
2022/09/09 09:56:09;;;;;;;5.35;1.40;;;22.70;57.50;;;;;;5036705;28;20194;-62
2022/09/09 09:58:44;;;;;;;5.68;1.30;;;22.70;57.50;;;;;;5038399;28;20198;-62
2022/09/09 10:01:39;;;;;;;5.03;1.50;;;22.70;57.60;;;;;;5055248;28;20191;-62
2022/09/09 10:04:20;;;;;;;2.80;1.00;;;22.80;57.60;;;;;;5041250;28;20203;-63
2022/09/09 10:06:45;;;;;;;3.97;1.30;;;22.80;57.60;;;;;;5054872;28;20179;-63
2022/09/09 10:09:27;;;;;;;5.72;1.23;;;22.80;57.60;;;;;;5055049;28;20577;-62
2022/09/09 10:12:18;;;;;;;3.25;1.20;;;22.80;57.70;;;;;;5054742;28;20175;-63
2022/09/09 10:15:08;;;;;;;2.65;1.20;;;22.80;57.70;;;;;;5054569;28;20179;-62
2022/09/09 10:17:46;;;;;;;8.32;1.42;;;22.70;57.60;;;;;;5036366;28;20634;-63
2022/09/09 10:20:39;;;;;;;5.85;1.55;;;22.70;57.70;;;;;;5037502;28;20545;-63
2022/09/09 10:23:15;;;;;;;4.13;1.75;;;22.70;57.60;;;;;;5054466;28;20183;-62
2022/09/09 10:25:56;;;;;;;6.10;1.30;;;22.60;57.50;;;;;;5037028;28;20214;-60
2022/09/09 10:28:48;;;;;;;3.05;1.42;;;22.60;57.50;;;;;;5054655;28;20216;-61
2022/09/09 10:31:25;;;;;;;4.72;1.42;;;22.60;57.50;;;;;;5036025;28;20565;-63
2022/09/09 10:34:18;;;;;;;5.35;1.90;;;22.60;57.30;;;;;;5039078;28;20178;-61
2022/09/09 10:36:46;;;;;;;6.95;1.70;;;22.60;57.20;;;;;;5054162;28;20459;-62
2022/09/09 10:39:42;;;;;;;2.88;1.30;;;22.60;57.30;;;;;;5035459;28;20410;-63
2022/09/09 10:42:14;;;;;;;6.95;2.13;;;22.60;57.20;;;;;;5036993;28;20551;-63
2022/09/09 10:44:55;;;;;;;2.97;1.17;;;22.60;57.20;;;;;;5053513;28;20702;-63
2022/09/09 10:47:50;;;;;;;5.35;1.30;;;22.60;57.10;;;;;;5037526;28;20286;-63
2022/09/09 10:50:28;;;;;;;3.80;1.05;;;22.60;57.10;;;;;;5054365;28;20179;-63
2022/09/09 10:53:09;;;;;;;5.45;1.50;;;22.60;57.10;;;;;;5035636;28;20175;-63
2022/09/09 10:55:42;;;;;;;4.15;1.33;;;22.50;57.10;;;;;;5054248;28;20198;-63
2022/09/09 10:58:12;;;;;;;3.40;1.02;;;22.60;57.10;;;;;;5036752;28;20176;-63
2022/09/09 11:00:38;;;;;;;3.67;1.23;;;22.50;57.10;;;;;;5035477;28;20179;-63
2022/09/09 11:03:04;;;;;;;3.03;1.30;;;22.50;57.10;;;;;;5036223;28;20179;-63
2022/09/09 11:05:41;;;;;;;3.10;1.10;;;22.60;57.00;;;;;;5053991;28;20178;-62
2022/09/09 11:08:20;;;;;;;4.50;1.13;;;22.60;57.00;;;;;;5036227;28;20673;-62
2022/09/09 11:11:11;;;;;;;3.67;1.13;;;22.60;56.90;;;;;;5053622;28;20183;-62
2022/09/09 11:13:54;;;;;;;6.38;2.03;;;22.60;56.80;;;;;;5035797;28;20179;-63
2022/09/09 11:16:23;;;;;;;4.30;1.15;;;22.70;56.80;;;;;;5053885;28;20266;-64
2022/09/09 11:18:49;;;;;;;4.60;1.60;;;22.60;57.40;;;;;;5053521;28;20253;-62
2022/09/09 11:21:23;;;;;;;6.82;1.20;;;22.70;56.90;;;;;;5052930;28;20630;-63
2022/09/09 11:23:58;;;;;;;2.42;1.10;;;22.70;56.90;;;;;;5035564;28;20709;-64
2022/09/09 11:26:30;;;;;;;8.20;1.42;;;22.70;56.70;;;;;;5035758;28;20312;-64
2022/09/09 11:29:28;;;;;;;5.10;1.40;;;22.70;56.90;;;;;;5052638;28;20622;-63
2022/09/09 11:32:01;;;;;;;4.75;1.40;;;22.60;56.90;;;;;;5037518;28;20181;-62
2022/09/09 11:34:33;;;;;;;5.35;1.50;;;22.60;56.90;;;;;;5035253;28;20175;-63
2022/09/09 11:37:17;;;;;;;6.35;1.45;;;22.70;56.90;;;;;;5068794;28;20265;-63
2022/09/09 11:39:59;;;;;;;6.30;1.60;;;22.70;56.70;;;;;;5058870;28;20189;-63
2022/09/09 11:42:25;;;;;;;3.60;1.05;;;22.70;56.60;;;;;;5054573;28;20182;-63
2022/09/09 11:44:50;;;;;;;5.85;1.65;;;22.70;56.70;;;;;;5072967;28;20177;-64
2022/09/09 11:47:30;;;;;;;4.53;1.80;;;22.70;56.70;;;;;;5055428;28;20289;-63
2022/09/09 11:50:15;;;;;;;5.68;1.25;;;22.60;56.70;;;;;;5071545;28;20185;-63
2022/09/09 11:52:48;;;;;;;4.20;1.33;;;22.70;56.80;;;;;;5056578;28;20551;-63
2022/09/09 11:55:32;;;;;;;5.85;1.85;;;22.60;56.70;;;;;;5055201;28;20178;-63
2022/09/09 11:57:59;;;;;;;6.93;1.88;;;22.60;56.80;;;;;;5072934;28;20265;-63
2022/09/09 12:00:41;;;;;;;4.93;1.50;;;22.60;56.80;;;;;;5073037;28;20177;-63
2022/09/09 12:03:27;;;;;;;5.60;1.42;;;22.60;56.80;;;;;;5072137;28;20198;-64
2022/09/09 12:05:53;;;;;;;4.80;1.88;;;22.70;56.70;;;;;;5057735;28;20657;-63
2022/09/09 12:08:22;;;;;;;4.07;1.58;;;22.70;56.60;;;;;;5072947;28;20211;-63
2022/09/09 12:10:59;;;;;;;2.53;1.20;;;22.70;56.70;;;;;;5054182;28;20249;-63
2022/09/09 12:13:26;;;;;;;4.30;1.73;;;22.70;56.80;;;;;;5055054;28;20207;-63
2022/09/09 12:15:56;;;;;;;7.43;1.40;;;22.60;56.90;;;;;;5072430;28;20182;-63
2022/09/09 12:18:39;;;;;;;2.90;1.55;;;22.60;56.90;;;;;;5072704;28;20547;-64
2022/09/09 12:21:32;;;;;;;2.22;1.38;;;22.70;57.00;;;;;;5054753;28;20178;-64
2022/09/09 12:24:09;;;;;;;3.53;1.33;;;22.70;56.90;;;;;;5054100;28;20182;-63
2022/09/09 12:26:38;;;;;;;3.22;1.13;;;22.70;56.90;;;;;;5054756;28;20232;-63
2022/09/09 12:29:19;;;;;;;3.20;0.93;;;22.70;56.90;;;;;;5072509;28;20244;-63
2022/09/09 12:32:03;;;;;;;3.30;1.23;;;22.60;56.90;;;;;;5071796;28;20177;-62
2022/09/09 12:34:42;;;;;;;4.85;1.45;;;22.70;57.00;;;;;;5072810;28;20174;-63
2022/09/09 12:37:26;;;;;;;1.58;0.98;;;22.70;57.10;;;;;;5071903;28;20227;-63
2022/09/09 12:39:59;;;;;;;1.77;1.10;;;22.70;57.10;;;;;;5072439;28;20209;-63
2022/09/09 12:42:25;;;;;;;3.63;1.27;;;22.60;57.20;;;;;;5072539;28;20178;-63
2022/09/09 12:45:00;;;;;;;4.35;1.20;;;22.60;57.20;;;;;;5071601;28;20243;-63
2022/09/09 12:47:38;;;;;;;2.70;1.00;;;22.70;57.20;;;;;;5072496;28;20204;-63
2022/09/09 12:50:04;;;;;;;3.95;1.00;;;22.60;57.20;;;;;;5055791;28;20182;-63
2022/09/09 12:52:35;;;;;;;2.58;1.23;;;22.70;57.20;;;;;;5071571;28;20179;-63
2022/09/09 12:55:01;;;;;;;3.78;1.33;;;22.70;57.20;;;;;;5054470;28;20592;-63
2022/09/09 12:57:31;;;;;;;4.13;1.20;;;22.60;57.20;;;;;;5054636;28;20182;-63
2022/09/09 13:00:23;;;;;;;2.08;1.10;;;22.70;57.20;;;;;;5053694;28;20232;-63
2022/09/09 13:02:55;;;;;;;3.60;1.23;;;22.80;57.20;;;;;;5076637;28;20304;-63
2022/09/09 13:05:24;;;;;;;3.72;1.75;;;22.90;57.10;;;;;;5075776;28;20564;-63
2022/09/09 13:07:49;;;;;;;2.00;1.13;;;22.90;57.10;;;;;;5075949;28;20213;-63
2022/09/09 13:10:24;;;;;;;1.95;1.02;;;22.70;57.10;;;;;;5058556;28;20170;-63